sensor_id;sensor_type;location;lat;lon;timestamp;temperature;humidity
488;DHT22;16586;48.976;9.584;2023-04-03T00:00:04;7.20;46.60
488;DHT22;16586;48.976;9.584;2023-04-03T00:02:32;7.20;46.70
488;DHT22;16586;48.976;9.584;2023-04-03T00:04:59;7.10;46.60
488;DHT22;16586;48.976;9.584;2023-04-03T00:07:26;7.50;47.20
488;DHT22;16586;48.976;9.584;2023-04-03T00:09:54;7.10;47.00
488;DHT22;16586;48.976;9.584;2023-04-03T00:12:21;7.00;47.10
488;DHT22;16586;48.976;9.584;2023-04-03T00:14:47;7.30;47.50
488;DHT22;16586;48.976;9.584;2023-04-03T00:17:14;7.00;47.40
488;DHT22;16586;48.976;9.584;2023-04-03T00:19:41;6.90;47.40
488;DHT22;16586;48.976;9.584;2023-04-03T00:22:07;6.90;47.50
488;DHT22;16586;48.976;9.584;2023-04-03T00:24:34;6.80;47.70
488;DHT22;16586;48.976;9.584;2023-04-03T00:27:02;6.80;47.70
488;DHT22;16586;48.976;9.584;2023-04-03T00:29:29;6.70;47.50
488;DHT22;16586;48.976;9.584;2023-04-03T00:31:56;6.80;47.70
488;DHT22;16586;48.976;9.584;2023-04-03T00:34:22;6.80;47.70
488;DHT22;16586;48.976;9.584;2023-04-03T00:36:49;6.80;48.50
488;DHT22;16586;48.976;9.584;2023-04-03T00:39:16;6.90;47.90
488;DHT22;16586;48.976;9.584;2023-04-03T00:41:43;7.10;48.20
488;DHT22;16586;48.976;9.584;2023-04-03T00:44:22;6.80;47.90
488;DHT22;16586;48.976;9.584;2023-04-03T00:46:49;6.70;48.00
488;DHT22;16586;48.976;9.584;2023-04-03T00:49:16;6.80;48.30
488;DHT22;16586;48.976;9.584;2023-04-03T00:51:43;6.80;48.20
488;DHT22;16586;48.976;9.584;2023-04-03T00:54:10;6.80;48.00
488;DHT22;16586;48.976;9.584;2023-04-03T00:56:37;6.80;48.00
488;DHT22;16586;48.976;9.584;2023-04-03T00:59:08;6.80;48.10
488;DHT22;16586;48.976;9.584;2023-04-03T01:01:37;6.80;47.90
488;DHT22;16586;48.976;9.584;2023-04-03T01:04:05;6.80;48.00
488;DHT22;16586;48.976;9.584;2023-04-03T01:06:34;6.80;47.90
488;DHT22;16586;48.976;9.584;2023-04-03T01:09:03;6.90;47.70
488;DHT22;16586;48.976;9.584;2023-04-03T01:11:30;6.90;47.50
488;DHT22;16586;48.976;9.584;2023-04-03T01:13:57;6.90;47.20
488;DHT22;16586;48.976;9.584;2023-04-03T01:16:24;6.90;47.00
488;DHT22;16586;48.976;9.584;2023-04-03T01:18:52;6.90;47.10
488;DHT22;16586;48.976;9.584;2023-04-03T01:24:33;6.90;46.60
488;DHT22;16586;48.976;9.584;2023-04-03T01:27:02;7.10;46.50
488;DHT22;16586;48.976;9.584;2023-04-03T01:29:31;7.00;46.00
488;DHT22;16586;48.976;9.584;2023-04-03T01:32:00;7.40;45.70
488;DHT22;16586;48.976;9.584;2023-04-03T01:34:28;6.90;44.90
488;DHT22;16586;48.976;9.584;2023-04-03T01:36:55;7.00;44.80
488;DHT22;16586;48.976;9.584;2023-04-03T01:39:22;7.30;44.70
488;DHT22;16586;48.976;9.584;2023-04-03T01:41:49;7.00;44.40
488;DHT22;16586;48.976;9.584;2023-04-03T01:44:16;7.00;44.10
488;DHT22;16586;48.976;9.584;2023-04-03T01:46:43;7.10;44.10
488;DHT22;16586;48.976;9.584;2023-04-03T01:49:11;7.10;43.90
488;DHT22;16586;48.976;9.584;2023-04-03T01:51:38;7.00;43.80
488;DHT22;16586;48.976;9.584;2023-04-03T01:54:05;7.00;43.60
488;DHT22;16586;48.976;9.584;2023-04-03T01:56:31;7.00;43.50
488;DHT22;16586;48.976;9.584;2023-04-03T01:58:58;7.00;43.40
488;DHT22;16586;48.976;9.584;2023-04-03T02:01:25;7.00;43.20
488;DHT22;16586;48.976;9.584;2023-04-03T02:03:52;7.10;43.10
488;DHT22;16586;48.976;9.584;2023-04-03T02:06:21;7.10;42.80
488;DHT22;16586;48.976;9.584;2023-04-03T02:08:48;7.00;42.50
488;DHT22;16586;48.976;9.584;2023-04-03T02:11:15;7.00;42.60
488;DHT22;16586;48.976;9.584;2023-04-03T02:13:41;7.00;42.60
488;DHT22;16586;48.976;9.584;2023-04-03T02:16:10;7.00;42.70
488;DHT22;16586;48.976;9.584;2023-04-03T02:18:38;7.00;42.10
488;DHT22;16586;48.976;9.584;2023-04-03T02:21:04;7.30;42.70
488;DHT22;16586;48.976;9.584;2023-04-03T02:23:33;7.00;42.40
488;DHT22;16586;48.976;9.584;2023-04-03T02:26:06;7.20;42.10
488;DHT22;16586;48.976;9.584;2023-04-03T02:28:34;7.00;42.10
488;DHT22;16586;48.976;9.584;2023-04-03T02:31:01;7.00;42.10
488;DHT22;16586;48.976;9.584;2023-04-03T02:33:28;7.00;42.00
488;DHT22;16586;48.976;9.584;2023-04-03T02:35:54;7.00;41.70
488;DHT22;16586;48.976;9.584;2023-04-03T02:38:22;6.90;41.60
488;DHT22;16586;48.976;9.584;2023-04-03T02:40:50;7.00;41.90
488;DHT22;16586;48.976;9.584;2023-04-03T02:43:17;7.00;41.60
488;DHT22;16586;48.976;9.584;2023-04-03T02:45:44;7.00;41.50
488;DHT22;16586;48.976;9.584;2023-04-03T02:48:11;7.00;41.50
488;DHT22;16586;48.976;9.584;2023-04-03T02:50:40;7.00;41.60
488;DHT22;16586;48.976;9.584;2023-04-03T02:53:06;7.00;41.50
488;DHT22;16586;48.976;9.584;2023-04-03T02:55:33;7.20;41.80
488;DHT22;16586;48.976;9.584;2023-04-03T02:58:01;7.00;41.80
488;DHT22;16586;48.976;9.584;2023-04-03T03:00:29;7.00;41.90
488;DHT22;16586;48.976;9.584;2023-04-03T03:02:55;7.00;42.80
488;DHT22;16586;48.976;9.584;2023-04-03T03:05:22;7.00;42.50
488;DHT22;16586;48.976;9.584;2023-04-03T03:07:49;7.00;42.50
488;DHT22;16586;48.976;9.584;2023-04-03T03:10:16;7.00;42.60
488;DHT22;16586;48.976;9.584;2023-04-03T03:12:43;7.00;42.70
488;DHT22;16586;48.976;9.584;2023-04-03T03:15:11;7.00;42.70
488;DHT22;16586;48.976;9.584;2023-04-03T03:17:38;6.90;42.60
488;DHT22;16586;48.976;9.584;2023-04-03T03:20:06;7.00;42.60
488;DHT22;16586;48.976;9.584;2023-04-03T03:22:34;7.00;42.60
488;DHT22;16586;48.976;9.584;2023-04-03T03:25:01;7.00;42.50
488;DHT22;16586;48.976;9.584;2023-04-03T03:27:28;7.10;42.60
488;DHT22;16586;48.976;9.584;2023-04-03T03:29:55;7.00;42.50
488;DHT22;16586;48.976;9.584;2023-04-03T03:32:23;7.10;42.80
488;DHT22;16586;48.976;9.584;2023-04-03T03:34:50;6.90;42.60
488;DHT22;16586;48.976;9.584;2023-04-03T03:37:17;6.90;43.00
488;DHT22;16586;48.976;9.584;2023-04-03T03:39:43;6.80;43.10
488;DHT22;16586;48.976;9.584;2023-04-03T03:42:10;7.10;43.70
488;DHT22;16586;48.976;9.584;2023-04-03T03:44:37;6.70;43.50
488;DHT22;16586;48.976;9.584;2023-04-03T03:47:03;6.70;43.60
488;DHT22;16586;48.976;9.584;2023-04-03T03:49:32;6.60;44.00
488;DHT22;16586;48.976;9.584;2023-04-03T03:51:59;6.60;44.40
488;DHT22;16586;48.976;9.584;2023-04-03T03:54:26;6.60;44.50
488;DHT22;16586;48.976;9.584;2023-04-03T03:56:53;6.50;44.80
488;DHT22;16586;48.976;9.584;2023-04-03T03:59:19;6.60;44.80
488;DHT22;16586;48.976;9.584;2023-04-03T04:01:48;6.50;44.80
488;DHT22;16586;48.976;9.584;2023-04-03T04:04:15;6.40;45.00
488;DHT22;16586;48.976;9.584;2023-04-03T04:06:43;6.40;44.90
488;DHT22;16586;48.976;9.584;2023-04-03T04:09:10;6.40;45.10
488;DHT22;16586;48.976;9.584;2023-04-03T04:11:37;6.40;45.10
488;DHT22;16586;48.976;9.584;2023-04-03T04:14:05;6.30;45.20
488;DHT22;16586;48.976;9.584;2023-04-03T04:16:32;6.30;45.30
488;DHT22;16586;48.976;9.584;2023-04-03T04:18:58;6.30;45.10
488;DHT22;16586;48.976;9.584;2023-04-03T04:21:25;6.30;45.20
488;DHT22;16586;48.976;9.584;2023-04-03T04:23:53;6.30;45.40
488;DHT22;16586;48.976;9.584;2023-04-03T04:26:20;6.30;45.30
488;DHT22;16586;48.976;9.584;2023-04-03T04:28:47;6.20;45.20
488;DHT22;16586;48.976;9.584;2023-04-03T04:31:13;6.20;45.30
488;DHT22;16586;48.976;9.584;2023-04-03T04:33:40;6.20;44.60
488;DHT22;16586;48.976;9.584;2023-04-03T04:36:07;6.20;44.40
488;DHT22;16586;48.976;9.584;2023-04-03T04:38:34;6.10;44.40
488;DHT22;16586;48.976;9.584;2023-04-03T04:41:02;6.10;44.40
488;DHT22;16586;48.976;9.584;2023-04-03T04:43:29;6.10;44.20
488;DHT22;16586;48.976;9.584;2023-04-03T04:46:02;6.10;43.80
488;DHT22;16586;48.976;9.584;2023-04-03T04:48:30;6.10;43.80
488;DHT22;16586;48.976;9.584;2023-04-03T04:50:56;6.10;44.00
488;DHT22;16586;48.976;9.584;2023-04-03T04:53:23;6.00;43.80
488;DHT22;16586;48.976;9.584;2023-04-03T04:55:50;6.00;43.60
488;DHT22;16586;48.976;9.584;2023-04-03T04:58:19;5.90;44.20
488;DHT22;16586;48.976;9.584;2023-04-03T05:00:46;5.80;43.60
488;DHT22;16586;48.976;9.584;2023-04-03T05:03:14;5.80;43.90
488;DHT22;16586;48.976;9.584;2023-04-03T05:05:41;5.70;43.90
488;DHT22;16586;48.976;9.584;2023-04-03T05:08:08;5.70;44.10
488;DHT22;16586;48.976;9.584;2023-04-03T05:10:34;5.60;44.30
488;DHT22;16586;48.976;9.584;2023-04-03T05:13:01;5.60;44.40
488;DHT22;16586;48.976;9.584;2023-04-03T05:15:29;5.60;44.50
488;DHT22;16586;48.976;9.584;2023-04-03T05:17:56;5.60;44.60
488;DHT22;16586;48.976;9.584;2023-04-03T05:20:23;5.60;44.50
488;DHT22;16586;48.976;9.584;2023-04-03T05:22:50;5.80;44.80
488;DHT22;16586;48.976;9.584;2023-04-03T05:25:16;6.10;44.90
488;DHT22;16586;48.976;9.584;2023-04-03T05:27:43;5.80;43.50
488;DHT22;16586;48.976;9.584;2023-04-03T05:30:11;5.80;43.90
488;DHT22;16586;48.976;9.584;2023-04-03T05:32:39;5.90;43.90
488;DHT22;16586;48.976;9.584;2023-04-03T05:35:06;6.10;44.20
488;DHT22;16586;48.976;9.584;2023-04-03T05:37:34;6.00;44.00
488;DHT22;16586;48.976;9.584;2023-04-03T05:40:01;6.10;44.00
488;DHT22;16586;48.976;9.584;2023-04-03T05:42:27;6.20;43.30
488;DHT22;16586;48.976;9.584;2023-04-03T05:44:55;6.10;43.70
488;DHT22;16586;48.976;9.584;2023-04-03T05:47:21;6.30;43.80
488;DHT22;16586;48.976;9.584;2023-04-03T05:49:50;6.20;43.40
488;DHT22;16586;48.976;9.584;2023-04-03T05:52:21;6.20;43.30
488;DHT22;16586;48.976;9.584;2023-04-03T05:54:49;6.20;43.50
488;DHT22;16586;48.976;9.584;2023-04-03T05:57:16;6.20;43.60
488;DHT22;16586;48.976;9.584;2023-04-03T05:59:43;6.30;43.80
488;DHT22;16586;48.976;9.584;2023-04-03T06:02:12;6.30;43.80
488;DHT22;16586;48.976;9.584;2023-04-03T06:04:39;6.40;43.50
488;DHT22;16586;48.976;9.584;2023-04-03T06:07:11;6.50;43.70
488;DHT22;16586;48.976;9.584;2023-04-03T06:09:38;6.50;43.80
488;DHT22;16586;48.976;9.584;2023-04-03T06:12:04;6.60;43.90
488;DHT22;16586;48.976;9.584;2023-04-03T06:14:31;6.70;43.50
488;DHT22;16586;48.976;9.584;2023-04-03T06:16:58;6.80;44.10
488;DHT22;16586;48.976;9.584;2023-04-03T06:19:25;6.80;43.00
488;DHT22;16586;48.976;9.584;2023-04-03T06:21:52;7.10;43.10
488;DHT22;16586;48.976;9.584;2023-04-03T06:24:20;6.90;42.90
488;DHT22;16586;48.976;9.584;2023-04-03T06:26:49;7.40;43.20
488;DHT22;16586;48.976;9.584;2023-04-03T06:29:17;7.00;42.40
488;DHT22;16586;48.976;9.584;2023-04-03T06:31:44;7.40;42.90
488;DHT22;16586;48.976;9.584;2023-04-03T06:34:11;7.00;43.50
488;DHT22;16586;48.976;9.584;2023-04-03T06:36:56;7.00;42.70
488;DHT22;16586;48.976;9.584;2023-04-03T06:39:24;7.10;42.60
488;DHT22;16586;48.976;9.584;2023-04-03T06:41:51;7.00;42.60
488;DHT22;16586;48.976;9.584;2023-04-03T06:44:18;7.00;42.30
488;DHT22;16586;48.976;9.584;2023-04-03T06:46:45;7.10;43.10
488;DHT22;16586;48.976;9.584;2023-04-03T06:49:12;7.10;42.50
488;DHT22;16586;48.976;9.584;2023-04-03T06:51:38;7.10;42.20
488;DHT22;16586;48.976;9.584;2023-04-03T06:54:06;7.00;42.10
488;DHT22;16586;48.976;9.584;2023-04-03T06:56:35;7.10;42.20
488;DHT22;16586;48.976;9.584;2023-04-03T06:59:01;7.10;42.10
488;DHT22;16586;48.976;9.584;2023-04-03T07:01:29;7.30;42.30
488;DHT22;16586;48.976;9.584;2023-04-03T07:03:57;7.10;41.80
488;DHT22;16586;48.976;9.584;2023-04-03T07:06:24;7.10;42.10
488;DHT22;16586;48.976;9.584;2023-04-03T07:08:53;7.30;42.00
488;DHT22;16586;48.976;9.584;2023-04-03T07:11:20;7.60;42.40
488;DHT22;16586;48.976;9.584;2023-04-03T07:13:48;7.10;42.10
488;DHT22;16586;48.976;9.584;2023-04-03T07:16:15;7.20;42.40
488;DHT22;16586;48.976;9.584;2023-04-03T07:18:41;7.20;42.10
488;DHT22;16586;48.976;9.584;2023-04-03T07:21:08;7.20;42.00
488;DHT22;16586;48.976;9.584;2023-04-03T07:23:35;7.20;42.00
488;DHT22;16586;48.976;9.584;2023-04-03T07:26:02;7.40;42.20
488;DHT22;16586;48.976;9.584;2023-04-03T07:28:29;7.30;42.50
488;DHT22;16586;48.976;9.584;2023-04-03T07:31:03;7.50;42.60
488;DHT22;16586;48.976;9.584;2023-04-03T07:33:30;7.70;42.70
488;DHT22;16586;48.976;9.584;2023-04-03T07:35:57;7.60;42.00
488;DHT22;16586;48.976;9.584;2023-04-03T07:38:24;7.80;41.70
488;DHT22;16586;48.976;9.584;2023-04-03T07:40:51;8.00;42.10
488;DHT22;16586;48.976;9.584;2023-04-03T07:43:20;8.10;41.90
488;DHT22;16586;48.976;9.584;2023-04-03T07:45:48;8.00;41.20
488;DHT22;16586;48.976;9.584;2023-04-03T07:48:18;8.10;41.30
488;DHT22;16586;48.976;9.584;2023-04-03T07:50:45;8.10;41.40
488;DHT22;16586;48.976;9.584;2023-04-03T07:53:12;8.20;41.30
488;DHT22;16586;48.976;9.584;2023-04-03T07:55:39;8.30;40.40
488;DHT22;16586;48.976;9.584;2023-04-03T07:58:09;8.30;40.10
488;DHT22;16586;48.976;9.584;2023-04-03T08:00:36;8.40;40.40
488;DHT22;16586;48.976;9.584;2023-04-03T08:03:03;8.40;39.90
488;DHT22;16586;48.976;9.584;2023-04-03T08:05:34;8.50;40.00
488;DHT22;16586;48.976;9.584;2023-04-03T08:08:02;8.70;39.60
488;DHT22;16586;48.976;9.584;2023-04-03T08:10:30;8.70;39.40
488;DHT22;16586;48.976;9.584;2023-04-03T08:12:57;8.80;39.50
488;DHT22;16586;48.976;9.584;2023-04-03T08:15:24;9.00;39.20
488;DHT22;16586;48.976;9.584;2023-04-03T08:17:51;9.10;38.80
488;DHT22;16586;48.976;9.584;2023-04-03T08:20:17;9.10;38.70
488;DHT22;16586;48.976;9.584;2023-04-03T08:22:46;9.20;39.10
488;DHT22;16586;48.976;9.584;2023-04-03T08:25:13;9.20;38.00
488;DHT22;16586;48.976;9.584;2023-04-03T08:27:40;9.20;38.20
488;DHT22;16586;48.976;9.584;2023-04-03T08:30:08;9.30;38.50
488;DHT22;16586;48.976;9.584;2023-04-03T08:32:35;9.40;37.70
488;DHT22;16586;48.976;9.584;2023-04-03T08:35:02;9.50;37.90
488;DHT22;16586;48.976;9.584;2023-04-03T08:37:29;9.50;37.70
488;DHT22;16586;48.976;9.584;2023-04-03T08:39:57;9.60;37.90
488;DHT22;16586;48.976;9.584;2023-04-03T08:42:38;9.60;37.70
488;DHT22;16586;48.976;9.584;2023-04-03T08:45:11;9.70;38.00
488;DHT22;16586;48.976;9.584;2023-04-03T08:47:44;9.70;38.80
488;DHT22;16586;48.976;9.584;2023-04-03T08:50:15;9.90;37.00
488;DHT22;16586;48.976;9.584;2023-04-03T08:52:44;9.90;37.00
488;DHT22;16586;48.976;9.584;2023-04-03T08:55:21;9.90;36.90
488;DHT22;16586;48.976;9.584;2023-04-03T08:57:51;10.00;35.50
488;DHT22;16586;48.976;9.584;2023-04-03T09:00:23;10.10;35.70
488;DHT22;16586;48.976;9.584;2023-04-03T09:02:52;10.10;35.50
488;DHT22;16586;48.976;9.584;2023-04-03T09:05:24;10.20;34.50
488;DHT22;16586;48.976;9.584;2023-04-03T09:07:58;10.20;34.30
488;DHT22;16586;48.976;9.584;2023-04-03T09:10:29;10.10;33.40
488;DHT22;16586;48.976;9.584;2023-04-03T09:13:03;10.00;33.70
488;DHT22;16586;48.976;9.584;2023-04-03T09:15:33;10.00;33.90
488;DHT22;16586;48.976;9.584;2023-04-03T09:18:04;10.00;34.30
488;DHT22;16586;48.976;9.584;2023-04-03T09:20:39;9.90;35.20
488;DHT22;16586;48.976;9.584;2023-04-03T09:23:18;9.90;35.90
488;DHT22;16586;48.976;9.584;2023-04-03T09:25:47;10.00;34.90
488;DHT22;16586;48.976;9.584;2023-04-03T09:28:15;10.00;35.40
488;DHT22;16586;48.976;9.584;2023-04-03T09:30:42;10.20;35.20
488;DHT22;16586;48.976;9.584;2023-04-03T09:33:09;10.30;34.40
488;DHT22;16586;48.976;9.584;2023-04-03T09:35:37;10.40;34.10
488;DHT22;16586;48.976;9.584;2023-04-03T09:38:20;10.50;33.30
488;DHT22;16586;48.976;9.584;2023-04-03T09:40:49;10.60;33.70
488;DHT22;16586;48.976;9.584;2023-04-03T09:43:24;10.60;32.90
488;DHT22;16586;48.976;9.584;2023-04-03T09:45:52;10.60;32.70
488;DHT22;16586;48.976;9.584;2023-04-03T09:48:20;10.80;33.50
488;DHT22;16586;48.976;9.584;2023-04-03T09:50:58;11.10;33.80
488;DHT22;16586;48.976;9.584;2023-04-03T09:53:32;11.40;32.10
488;DHT22;16586;48.976;9.584;2023-04-03T09:56:04;11.60;32.30
488;DHT22;16586;48.976;9.584;2023-04-03T09:58:35;11.60;31.10
488;DHT22;16586;48.976;9.584;2023-04-03T10:01:04;11.70;29.60
488;DHT22;16586;48.976;9.584;2023-04-03T10:03:33;11.70;31.00
488;DHT22;16586;48.976;9.584;2023-04-03T10:06:02;11.80;29.60
488;DHT22;16586;48.976;9.584;2023-04-03T10:08:30;11.90;30.30
488;DHT22;16586;48.976;9.584;2023-04-03T10:11:13;12.00;30.40
488;DHT22;16586;48.976;9.584;2023-04-03T10:13:55;12.10;30.30
488;DHT22;16586;48.976;9.584;2023-04-03T10:16:26;12.10;29.80
488;DHT22;16586;48.976;9.584;2023-04-03T10:21:45;11.80;29.60
488;DHT22;16586;48.976;9.584;2023-04-03T10:24:15;11.60;29.60
488;DHT22;16586;48.976;9.584;2023-04-03T10:26:52;11.30;29.30
488;DHT22;16586;48.976;9.584;2023-04-03T10:29:43;11.10;29.80
488;DHT22;16586;48.976;9.584;2023-04-03T10:32:26;11.00;30.80
488;DHT22;16586;48.976;9.584;2023-04-03T10:35:01;11.10;31.40
488;DHT22;16586;48.976;9.584;2023-04-03T10:37:33;11.10;31.70
488;DHT22;16586;48.976;9.584;2023-04-03T10:40:20;11.20;31.00
488;DHT22;16586;48.976;9.584;2023-04-03T10:42:53;11.20;30.90
488;DHT22;16586;48.976;9.584;2023-04-03T10:45:26;11.20;30.70
488;DHT22;16586;48.976;9.584;2023-04-03T10:48:01;11.20;30.40
488;DHT22;16586;48.976;9.584;2023-04-03T10:50:38;11.00;30.40
488;DHT22;16586;48.976;9.584;2023-04-03T10:53:12;10.90;30.30
488;DHT22;16586;48.976;9.584;2023-04-03T10:55:44;10.70;30.10
488;DHT22;16586;48.976;9.584;2023-04-03T10:58:22;10.70;30.60
488;DHT22;16586;48.976;9.584;2023-04-03T11:00:52;10.60;30.60
488;DHT22;16586;48.976;9.584;2023-04-03T11:03:29;10.50;30.20
488;DHT22;16586;48.976;9.584;2023-04-03T11:05:59;10.30;30.60
488;DHT22;16586;48.976;9.584;2023-04-03T11:08:30;10.30;30.90
488;DHT22;16586;48.976;9.584;2023-04-03T11:11:00;10.20;31.00
488;DHT22;16586;48.976;9.584;2023-04-03T11:13:33;10.20;30.50
488;DHT22;16586;48.976;9.584;2023-04-03T11:16:02;10.40;31.90
488;DHT22;16586;48.976;9.584;2023-04-03T11:18:35;10.70;31.30
488;DHT22;16586;48.976;9.584;2023-04-03T11:21:07;11.10;30.90
488;DHT22;16586;48.976;9.584;2023-04-03T11:23:39;11.50;30.40
488;DHT22;16586;48.976;9.584;2023-04-03T11:26:10;11.80;29.20
488;DHT22;16586;48.976;9.584;2023-04-03T11:28:39;12.00;27.90
488;DHT22;16586;48.976;9.584;2023-04-03T11:31:14;11.90;27.90
488;DHT22;16586;48.976;9.584;2023-04-03T11:33:49;11.80;28.10
488;DHT22;16586;48.976;9.584;2023-04-03T11:36:21;11.80;28.30
488;DHT22;16586;48.976;9.584;2023-04-03T11:38:52;12.00;28.70
488;DHT22;16586;48.976;9.584;2023-04-03T11:41:25;12.20;28.10
488;DHT22;16586;48.976;9.584;2023-04-03T11:43:59;12.40;28.20
488;DHT22;16586;48.976;9.584;2023-04-03T11:46:56;12.50;26.80
488;DHT22;16586;48.976;9.584;2023-04-03T11:52:58;12.40;26.60
488;DHT22;16586;48.976;9.584;2023-04-03T11:55:56;12.20;26.60
488;DHT22;16586;48.976;9.584;2023-04-03T11:58:25;12.00;26.40
488;DHT22;16586;48.976;9.584;2023-04-03T12:01:08;11.90;27.00
488;DHT22;16586;48.976;9.584;2023-04-03T12:03:57;11.90;27.20
488;DHT22;16586;48.976;9.584;2023-04-03T12:09:54;11.60;27.30
488;DHT22;16586;48.976;9.584;2023-04-03T12:12:32;11.50;26.50
488;DHT22;16586;48.976;9.584;2023-04-03T12:15:19;11.30;26.60
488;DHT22;16586;48.976;9.584;2023-04-03T12:17:49;11.10;26.90
488;DHT22;16586;48.976;9.584;2023-04-03T12:20:56;11.20;27.90
488;DHT22;16586;48.976;9.584;2023-04-03T12:23:29;11.60;28.00
488;DHT22;16586;48.976;9.584;2023-04-03T12:26:03;12.00;27.60
488;DHT22;16586;48.976;9.584;2023-04-03T12:28:37;12.30;27.10
488;DHT22;16586;48.976;9.584;2023-04-03T12:31:08;12.60;26.80
488;DHT22;16586;48.976;9.584;2023-04-03T12:33:51;12.80;27.00
488;DHT22;16586;48.976;9.584;2023-04-03T12:36:30;13.00;23.90
488;DHT22;16586;48.976;9.584;2023-04-03T12:39:07;12.80;24.80
488;DHT22;16586;48.976;9.584;2023-04-03T12:41:48;12.50;24.80
488;DHT22;16586;48.976;9.584;2023-04-03T12:44:31;12.30;25.20
488;DHT22;16586;48.976;9.584;2023-04-03T12:47:16;12.20;25.30
488;DHT22;16586;48.976;9.584;2023-04-03T12:49:49;12.20;25.50
488;DHT22;16586;48.976;9.584;2023-04-03T12:52:19;12.10;25.00
488;DHT22;16586;48.976;9.584;2023-04-03T12:54:49;12.20;25.60
488;DHT22;16586;48.976;9.584;2023-04-03T12:57:18;12.30;24.80
488;DHT22;16586;48.976;9.584;2023-04-03T12:59:46;12.30;25.00
488;DHT22;16586;48.976;9.584;2023-04-03T13:02:21;12.10;23.70
488;DHT22;16586;48.976;9.584;2023-04-03T13:04:51;12.00;24.60
488;DHT22;16586;48.976;9.584;2023-04-03T13:07:24;11.90;25.30
488;DHT22;16586;48.976;9.584;2023-04-03T13:09:57;12.00;25.00
488;DHT22;16586;48.976;9.584;2023-04-03T13:12:25;12.10;25.40
488;DHT22;16586;48.976;9.584;2023-04-03T13:14:52;12.20;25.10
488;DHT22;16586;48.976;9.584;2023-04-03T13:17:20;12.40;25.20
488;DHT22;16586;48.976;9.584;2023-04-03T13:19:47;12.60;24.70
488;DHT22;16586;48.976;9.584;2023-04-03T13:22:26;12.70;24.60
488;DHT22;16586;48.976;9.584;2023-04-03T13:24:55;13.00;24.50
488;DHT22;16586;48.976;9.584;2023-04-03T13:27:24;13.10;24.40
488;DHT22;16586;48.976;9.584;2023-04-03T13:29:52;13.30;23.90
488;DHT22;16586;48.976;9.584;2023-04-03T13:32:21;13.40;23.50
488;DHT22;16586;48.976;9.584;2023-04-03T13:34:49;13.50;22.80
488;DHT22;16586;48.976;9.584;2023-04-03T13:37:22;13.50;22.80
488;DHT22;16586;48.976;9.584;2023-04-03T13:40:01;13.40;22.10
488;DHT22;16586;48.976;9.584;2023-04-03T13:42:31;13.40;22.20
488;DHT22;16586;48.976;9.584;2023-04-03T13:45:17;13.40;22.30
488;DHT22;16586;48.976;9.584;2023-04-03T13:47:46;13.60;22.30
488;DHT22;16586;48.976;9.584;2023-04-03T13:50:16;13.70;22.10
488;DHT22;16586;48.976;9.584;2023-04-03T13:52:47;13.80;21.90
488;DHT22;16586;48.976;9.584;2023-04-03T13:55:21;13.80;21.90
488;DHT22;16586;48.976;9.584;2023-04-03T13:57:53;13.70;21.70
488;DHT22;16586;48.976;9.584;2023-04-03T14:00:28;13.60;21.70
488;DHT22;16586;48.976;9.584;2023-04-03T14:02:56;13.40;21.80
488;DHT22;16586;48.976;9.584;2023-04-03T14:05:24;13.40;21.90
488;DHT22;16586;48.976;9.584;2023-04-03T14:07:54;13.30;22.00
488;DHT22;16586;48.976;9.584;2023-04-03T14:10:21;13.30;22.20
488;DHT22;16586;48.976;9.584;2023-04-03T14:12:48;13.20;22.10
488;DHT22;16586;48.976;9.584;2023-04-03T14:15:18;13.10;22.20
488;DHT22;16586;48.976;9.584;2023-04-03T14:17:46;12.90;22.10
488;DHT22;16586;48.976;9.584;2023-04-03T14:20:15;12.80;21.80
488;DHT22;16586;48.976;9.584;2023-04-03T14:22:43;12.50;21.80
488;DHT22;16586;48.976;9.584;2023-04-03T14:25:11;12.30;22.30
488;DHT22;16586;48.976;9.584;2023-04-03T14:27:40;12.20;22.00
488;DHT22;16586;48.976;9.584;2023-04-03T14:30:11;12.40;22.10
488;DHT22;16586;48.976;9.584;2023-04-03T14:32:39;12.60;22.90
488;DHT22;16586;48.976;9.584;2023-04-03T14:35:07;13.00;22.10
488;DHT22;16586;48.976;9.584;2023-04-03T14:37:34;13.40;21.30
488;DHT22;16586;48.976;9.584;2023-04-03T14:40:03;13.60;21.00
488;DHT22;16586;48.976;9.584;2023-04-03T14:42:34;13.80;20.30
488;DHT22;16586;48.976;9.584;2023-04-03T14:45:03;13.90;20.40
488;DHT22;16586;48.976;9.584;2023-04-03T14:47:31;13.80;20.30
488;DHT22;16586;48.976;9.584;2023-04-03T14:49:58;13.70;20.20
488;DHT22;16586;48.976;9.584;2023-04-03T14:52:27;13.50;20.00
488;DHT22;16586;48.976;9.584;2023-04-03T14:54:55;13.30;20.40
488;DHT22;16586;48.976;9.584;2023-04-03T14:57:24;13.10;20.80
488;DHT22;16586;48.976;9.584;2023-04-03T14:59:53;12.80;20.70
488;DHT22;16586;48.976;9.584;2023-04-03T15:02:30;12.70;21.30
488;DHT22;16586;48.976;9.584;2023-04-03T15:04:58;12.50;21.80
488;DHT22;16586;48.976;9.584;2023-04-03T15:07:27;12.40;22.10
488;DHT22;16586;48.976;9.584;2023-04-03T15:09:58;12.40;22.50
488;DHT22;16586;48.976;9.584;2023-04-03T15:12:26;12.40;22.10
488;DHT22;16586;48.976;9.584;2023-04-03T15:14:54;12.40;21.90
488;DHT22;16586;48.976;9.584;2023-04-03T15:17:22;12.40;22.10
488;DHT22;16586;48.976;9.584;2023-04-03T15:19:49;12.40;21.90
488;DHT22;16586;48.976;9.584;2023-04-03T15:22:18;12.40;21.90
488;DHT22;16586;48.976;9.584;2023-04-03T15:24:45;12.50;21.40
488;DHT22;16586;48.976;9.584;2023-04-03T15:27:13;12.50;21.40
488;DHT22;16586;48.976;9.584;2023-04-03T15:29:41;12.70;21.70
488;DHT22;16586;48.976;9.584;2023-04-03T15:32:10;13.00;22.00
488;DHT22;16586;48.976;9.584;2023-04-03T15:34:38;13.30;21.10
488;DHT22;16586;48.976;9.584;2023-04-03T15:37:05;13.40;20.40
488;DHT22;16586;48.976;9.584;2023-04-03T15:39:31;13.40;20.00
488;DHT22;16586;48.976;9.584;2023-04-03T15:41:58;13.20;19.90
488;DHT22;16586;48.976;9.584;2023-04-03T15:44:31;12.90;19.60
488;DHT22;16586;48.976;9.584;2023-04-03T15:46:58;12.60;20.10
488;DHT22;16586;48.976;9.584;2023-04-03T15:49:27;12.40;20.60
488;DHT22;16586;48.976;9.584;2023-04-03T15:51:53;12.30;21.10
488;DHT22;16586;48.976;9.584;2023-04-03T15:54:20;12.40;21.30
488;DHT22;16586;48.976;9.584;2023-04-03T15:56:49;12.60;21.20
488;DHT22;16586;48.976;9.584;2023-04-03T15:59:16;12.90;21.40
488;DHT22;16586;48.976;9.584;2023-04-03T16:01:43;13.20;21.80
488;DHT22;16586;48.976;9.584;2023-04-03T16:04:09;13.40;21.20
488;DHT22;16586;48.976;9.584;2023-04-03T16:06:38;13.60;20.70
488;DHT22;16586;48.976;9.584;2023-04-03T16:09:06;13.40;20.00
488;DHT22;16586;48.976;9.584;2023-04-03T16:11:33;13.20;19.90
488;DHT22;16586;48.976;9.584;2023-04-03T16:14:01;13.00;19.80
488;DHT22;16586;48.976;9.584;2023-04-03T16:16:27;12.80;19.90
488;DHT22;16586;48.976;9.584;2023-04-03T16:18:55;12.50;20.10
488;DHT22;16586;48.976;9.584;2023-04-03T16:21:22;12.20;20.80
488;DHT22;16586;48.976;9.584;2023-04-03T16:23:51;11.90;21.30
488;DHT22;16586;48.976;9.584;2023-04-03T16:26:17;11.70;21.60
488;DHT22;16586;48.976;9.584;2023-04-03T16:28:45;11.50;21.20
488;DHT22;16586;48.976;9.584;2023-04-03T16:31:12;11.40;21.50
488;DHT22;16586;48.976;9.584;2023-04-03T16:33:39;11.30;21.60
488;DHT22;16586;48.976;9.584;2023-04-03T16:36:06;11.20;21.90